Time;durP1;ratioP1;P1;durP2;ratioP2;P2;SDS_P1;SDS_P2;PMS_P1;PMS_P2;Temp;Humidity;BMP_temperature;BMP_pressure;BME280_temperature;BME280_humidity;BME280_pressure;Samples;Min_cycle;Max_cycle;Signal;HPM_P1;HPM_P2
2021/11/16 00:03:59;;;;;;;63.42;30.58;;;;;;;5.29;100.00;102487.03;10585780;28;20048;-60
2021/11/16 00:09:04;;;;;;;54.60;29.20;;;;;;;5.44;100.00;102480.84;10585317;28;20051;-60
2021/11/16 00:14:07;;;;;;;53.70;28.35;;;;;;;5.53;100.00;102474.72;10585327;28;20039;-61
2021/11/16 00:19:15;;;;;;;57.45;30.85;;;;;;;5.51;100.00;102474.72;10584775;28;20055;-62
2021/11/16 00:24:21;;;;;;;59.13;30.45;;;;;;;5.62;100.00;102471.19;10566828;28;20050;-60
2021/11/16 00:29:23;;;;;;;60.88;29.48;;;;;;;5.55;100.00;102468.63;10585007;28;20056;-60
2021/11/16 00:34:25;;;;;;;62.42;31.50;;;;;;;5.51;100.00;102468.69;10584758;28;20047;-60
2021/11/16 00:39:28;;;;;;;59.60;30.08;;;;;;;5.39;100.00;102457.50;10583933;28;20066;-61
2021/11/16 00:44:30;;;;;;;66.05;32.38;;;;;;;5.47;100.00;102456.59;10583372;28;20130;-62
2021/11/16 00:49:32;;;;;;;61.28;31.67;;;;;;;5.32;100.00;102457.59;10583973;28;20048;-61
2021/11/16 00:54:35;;;;;;;60.85;30.80;;;;;;;5.40;100.00;102448.84;10583977;28;20043;-60
2021/11/16 00:59:37;;;;;;;62.85;30.73;;;;;;;5.44;100.00;102454.88;10583473;28;20055;-60
2021/11/16 01:04:41;;;;;;;68.20;32.65;;;;;;;5.37;100.00;102440.25;10583376;28;20051;-60
2021/11/16 01:09:44;;;;;;;60.67;32.08;;;;;;;5.35;100.00;102445.44;10582678;28;20051;-60
2021/11/16 01:14:47;;;;;;;60.80;32.90;;;;;;;5.38;100.00;102435.03;10582898;28;20415;-60
2021/11/16 01:19:49;;;;;;;60.95;31.98;;;;;;;5.42;100.00;102432.41;10582410;28;20415;-61
2021/11/16 01:24:52;;;;;;;70.55;34.95;;;;;;;5.27;100.00;102423.88;10582784;28;20085;-61
2021/11/16 01:29:55;;;;;;;64.38;32.88;;;;;;;5.31;100.00;102417.78;10582360;28;20047;-60
2021/11/16 01:34:57;;;;;;;55.75;31.67;;;;;;;5.52;100.00;102424.50;10582504;28;20063;-59
2021/11/16 01:40:00;;;;;;;65.13;32.78;;;;;;;5.58;100.00;102420.97;10581938;28;20054;-61
2021/11/16 01:45:04;;;;;;;58.95;31.67;;;;;;;5.42;100.00;102419.44;10582411;28;20043;-61
2021/11/16 01:50:07;;;;;;;61.10;32.40;;;;;;;5.35;100.00;102405.63;10581803;28;20058;-60
2021/11/16 01:55:11;;;;;;;62.53;32.60;;;;;;;5.49;100.00;102405.50;10581775;28;20040;-61
2021/11/16 02:00:30;;;;;;;67.78;34.28;;;;;;;5.31;100.00;102403.91;10581477;28;20056;-60
2021/11/16 02:05:36;;;;;;;71.65;34.88;;;;;;;5.35;100.00;102403.88;10563372;28;20484;-60
2021/11/16 02:10:41;;;;;;;66.45;34.38;;;;;;;5.28;100.00;102399.63;10581443;28;20054;-60
2021/11/16 02:15:44;;;;;;;58.42;29.42;;;;;;;5.57;100.00;102399.31;10563951;28;20048;-60
2021/11/16 02:20:48;;;;;;;66.03;32.03;;;;;;;5.09;100.00;102398.06;10563572;28;20097;-61
2021/11/16 02:25:51;;;;;;;64.88;33.83;;;;;;;5.20;100.00;102398.84;10581558;28;20056;-60
2021/11/16 02:30:54;;;;;;;60.83;32.72;;;;;;;5.36;100.00;102397.81;10581005;28;20513;-61
2021/11/16 02:35:57;;;;;;;69.40;34.60;;;;;;;5.32;100.00;102400.47;10580800;28;20399;-61
2021/11/16 02:41:01;;;;;;;65.18;33.00;;;;;;;5.52;100.00;102398.50;10580425;28;20047;-60
2021/11/16 02:46:04;;;;;;;64.28;32.20;;;;;;;5.68;100.00;102398.34;10580987;28;20048;-60
2021/11/16 02:51:10;;;;;;;68.78;33.40;;;;;;;5.26;100.00;102393.59;10562686;28;20044;-61
2021/11/16 02:56:12;;;;;;;60.42;32.53;;;;;;;5.27;100.00;102394.47;10580847;28;20044;-62
2021/11/16 03:01:17;;;;;;;73.72;36.28;;;;;;;5.37;100.00;102396.94;10580588;28;20067;-60
2021/11/16 03:06:20;;;;;;;68.13;33.15;;;;;;;5.52;100.00;102388.13;10583643;28;20062;-61
2021/11/16 03:11:22;;;;;;;66.50;32.92;;;;;;;5.38;100.00;102385.69;10587667;28;20052;-60
2021/11/16 03:16:25;;;;;;;64.40;32.83;;;;;;;5.35;100.00;102385.69;10587979;28;20043;-60
2021/11/16 03:21:27;;;;;;;72.18;34.00;;;;;;;5.36;100.00;102370.97;10587204;28;20399;-60
2021/11/16 03:26:30;;;;;;;71.32;36.33;;;;;;;5.40;100.00;102363.13;10552993;28;20039;-60
2021/11/16 03:36:37;;;;;;;66.93;34.70;;;;;;;5.42;100.00;102368.31;10586936;28;20039;-62
2021/11/16 03:41:40;;;;;;;68.07;33.63;;;;;;;5.22;100.00;102368.53;10586065;28;20059;-60
2021/11/16 03:46:43;;;;;;;68.53;33.95;;;;;;;5.63;100.00;102367.25;10586554;28;20044;-60
2021/11/16 03:51:47;;;;;;;63.67;32.50;;;;;;;5.44;100.00;102358.75;10585912;28;20054;-60
2021/11/16 03:56:50;;;;;;;58.28;31.92;;;;;;;5.54;100.00;102365.56;10586241;28;20070;-60
2021/11/16 04:01:52;;;;;;;64.13;30.27;;;;;;;5.66;100.00;102364.56;10585644;28;20048;-59
2021/11/16 04:06:55;;;;;;;64.28;33.97;;;;;;;5.61;100.00;102366.38;10567991;28;20043;-61
2021/11/16 04:11:58;;;;;;;71.00;34.65;;;;;;;5.59;100.00;102366.38;10585438;28;20051;-60
2021/11/16 04:17:00;;;;;;;70.68;35.83;;;;;;;5.42;100.00;102373.53;10567550;28;20245;-59
2021/11/16 04:22:04;;;;;;;62.13;31.52;;;;;;;5.57;100.00;102375.09;10584869;28;20054;-60
2021/11/16 04:27:07;;;;;;;76.45;37.17;;;;;;;5.38;100.00;102361.44;10584743;28;20044;-62
2021/11/16 04:32:09;;;;;;;69.45;35.58;;;;;;;5.66;100.00;102361.97;10584345;28;20491;-61
2021/11/16 04:37:11;;;;;;;77.82;34.30;;;;;;;5.38;100.00;102370.09;10584742;28;20043;-59
2021/11/16 04:42:14;;;;;;;70.38;34.75;;;;;;;5.64;100.00;102368.94;10583658;28;20051;-60
2021/11/16 04:47:20;;;;;;;70.82;35.88;;;;;;;5.64;100.00;102360.28;10566033;28;20043;-62
2021/11/16 05:03:09;;;;;;;69.32;36.35;;;;;;;5.25;100.00;102352.91;10583465;28;20055;-61
2021/11/16 05:08:12;;;;;;;77.47;38.30;;;;;;;5.35;100.00;102357.13;10583320;28;20050;-61
2021/11/16 05:13:14;;;;;;;75.15;38.88;;;;;;;5.30;100.00;102366.72;10583081;28;20048;-60
2021/11/16 05:18:16;;;;;;;71.60;36.78;;;;;;;5.66;100.00;102359.38;10582993;28;20055;-60
2021/11/16 05:23:20;;;;;;;73.75;36.38;;;;;;;5.59;100.00;102368.97;10582815;28;20043;-60
2021/11/16 05:28:22;;;;;;;72.80;35.00;;;;;;;5.35;100.00;102372.72;10582089;28;20047;-60
2021/11/16 05:33:26;;;;;;;72.50;35.63;;;;;;;5.37;100.00;102370.09;10582348;28;20419;-60
2021/11/16 05:38:32;;;;;;;73.53;35.83;;;;;;;5.62;100.00;102375.03;10582015;28;20047;-60
2021/11/16 05:43:36;;;;;;;73.25;34.67;;;;;;;5.39;100.00;102377.00;10563878;28;20074;-60
2021/11/16 05:48:41;;;;;;;75.25;36.15;;;;;;;5.57;100.00;102380.28;10582200;28;20048;-60
2021/11/16 05:53:46;;;;;;;66.18;32.85;;;;;;;5.58;100.00;102376.78;10581753;28;20450;-61
2021/11/16 05:58:54;;;;;;;79.05;37.40;;;;;;;5.27;100.00;102376.28;10582274;28;20046;-61
2021/11/16 06:03:56;;;;;;;69.43;34.13;;;;;;;5.38;100.00;102366.66;10563754;28;20054;-61
2021/11/16 06:09:02;;;;;;;72.25;33.45;;;;;;;5.27;100.00;102364.13;10564110;28;20047;-60
2021/11/16 06:14:05;;;;;;;89.35;37.72;;;;;;;5.20;100.00;102368.53;10581490;28;20395;-61
2021/11/16 06:19:08;;;;;;;72.10;35.25;;;;;;;5.42;100.00;102362.28;10581600;28;20051;-61
2021/11/16 06:24:11;;;;;;;79.30;36.13;;;;;;;5.42;100.00;102365.72;10563422;28;20047;-61
2021/11/16 06:29:13;;;;;;;73.00;35.30;;;;;;;5.32;100.00;102377.94;10581285;28;20050;-60
2021/11/16 06:34:16;;;;;;;75.65;34.38;;;;;;;4.99;100.00;102373.91;10580850;28;20050;-61
2021/11/16 06:39:21;;;;;;;80.15;34.60;;;;;;;5.08;100.00;102371.25;10582089;28;20055;-60
2021/11/16 06:44:23;;;;;;;77.82;34.83;;;;;;;5.07;100.00;102376.47;10589517;28;20043;-60
2021/11/16 06:49:26;;;;;;;90.25;36.30;;;;;;;4.94;100.00;102367.91;10589405;28;20044;-60
2021/11/16 06:54:28;;;;;;;89.50;38.28;;;;;;;5.13;100.00;102369.47;10588625;28;20502;-61
2021/11/16 06:59:31;;;;;;;90.75;37.88;;;;;;;5.19;100.00;102376.34;10570714;28;20051;-60
2021/11/16 07:04:40;;;;;;;87.45;38.50;;;;;;;5.00;100.00;102373.06;10588187;28;20052;-60
2021/11/16 07:09:43;;;;;;;87.30;38.60;;;;;;;5.13;100.00;102372.06;10587862;28;20522;-60
2021/11/16 07:14:45;;;;;;;113.72;39.55;;;;;;;4.96;100.00;102368.75;10587910;28;20047;-60
2021/11/16 07:19:53;;;;;;;97.05;37.20;;;;;;;5.03;100.00;102368.69;10587498;28;20066;-60
2021/11/16 07:25:00;;;;;;;89.00;38.28;;;;;;;4.80;100.00;102371.47;10587643;28;20062;-62
2021/11/16 07:30:05;;;;;;;90.40;35.35;;;;;;;4.87;100.00;102369.69;10587227;28;20384;-60
2021/11/16 07:35:08;;;;;;;97.93;37.97;;;;;;;4.96;100.00;102368.75;10586685;28;20040;-60
2021/11/16 07:40:14;;;;;;;92.38;37.10;;;;;;;4.97;100.00;102379.13;10586414;28;20395;-60
2021/11/16 07:45:20;;;;;;;108.00;39.40;;;;;;;4.92;100.00;102385.25;10586988;28;20047;-60
2021/11/16 07:50:31;;;;;;;109.50;38.13;;;;;;;4.78;100.00;102378.44;10585776;28;20054;-61
2021/11/16 07:55:34;;;;;;;103.20;38.65;;;;;;;5.07;100.00;102385.09;10586540;28;20043;-62
2021/11/16 08:00:39;;;;;;;97.85;37.15;;;;;;;5.11;100.00;102381.63;10585754;28;20051;-60
2021/11/16 08:05:56;;;;;;;105.03;39.90;;;;;;;5.11;100.00;102372.94;10568433;28;20044;-62
2021/11/16 08:11:33;;;;;;;109.03;40.13;;;;;;;5.08;100.00;102370.38;10585587;28;20051;-59
2021/11/16 08:16:49;;;;;;;104.65;39.95;;;;;;;5.14;100.00;102367.72;10585545;28;20048;-60
2021/11/16 08:21:59;;;;;;;89.65;38.10;;;;;;;5.19;100.00;102372.03;10584880;28;20482;-61
2021/11/16 08:27:03;;;;;;;104.65;40.20;;;;;;;5.07;100.00;102366.94;10585074;28;20119;-60
2021/11/16 08:32:14;;;;;;;109.70;40.40;;;;;;;4.99;100.00;102366.13;10584492;28;20047;-60
2021/11/16 08:37:17;;;;;;;110.13;39.40;;;;;;;5.09;100.00;102357.38;10567450;28;20043;-61
2021/11/16 08:42:22;;;;;;;104.95;40.17;;;;;;;5.07;100.00;102360.88;10584302;28;20051;-60
2021/11/16 08:47:52;;;;;;;110.68;40.97;;;;;;;5.08;100.00;102360.00;10584817;28;20209;-62
2021/11/16 08:52:55;;;;;;;105.50;37.85;;;;;;;5.33;100.00;102358.91;10573733;28;20052;-60
2021/11/16 08:58:02;;;;;;;113.38;40.78;;;;;;;5.15;100.00;102354.75;10566157;28;20047;-62
2021/11/16 09:03:20;;;;;;;87.18;35.55;;;;;;;5.21;100.00;102356.41;10582593;28;20051;-60
2021/11/16 09:08:26;;;;;;;101.05;37.90;;;;;;;5.08;100.00;102347.00;10584331;28;20047;-60
2021/11/16 09:13:30;;;;;;;100.82;38.38;;;;;;;5.14;100.00;102346.97;10583109;28;20055;-62
2021/11/16 09:18:39;;;;;;;94.82;38.05;;;;;;;5.06;100.00;102351.38;10583009;28;20047;-62
2021/11/16 09:23:49;;;;;;;107.50;37.78;;;;;;;5.03;100.00;102344.47;10564721;28;20057;-60
2021/11/16 09:28:54;;;;;;;92.13;35.92;;;;;;;5.12;100.00;102339.19;10582696;28;20054;-60
2021/11/16 09:34:06;;;;;;;100.40;37.42;;;;;;;5.31;100.00;102341.59;10582288;28;20054;-60
2021/11/16 09:39:08;;;;;;;;;;;;;;;5.01;100.00;102336.72;10582509;28;20054;-60
2021/11/16 09:44:15;;;;;;;105.65;38.50;;;;;;;5.05;100.00;102328.91;10581953;28;20367;-60
2021/11/16 09:49:35;;;;;;;90.10;37.85;;;;;;;5.36;100.00;102321.63;10582078;28;20043;-60
2021/11/16 09:54:55;;;;;;;93.10;37.92;;;;;;;5.08;100.00;102321.94;10547206;28;20403;-62
2021/11/16 10:00:28;;;;;;;102.22;40.53;;;;;;;5.05;100.00;102321.97;10581765;28;20044;-60
2021/11/16 10:05:39;;;;;;;106.85;38.28;;;;;;;5.19;100.00;102320.09;10581978;28;20047;-61
2021/11/16 10:10:44;;;;;;;116.20;43.30;;;;;;;5.14;100.00;102318.41;10581612;28;20054;-61
2021/11/16 10:15:49;;;;;;;105.95;38.50;;;;;;;5.34;100.00;102313.00;10585293;28;20043;-60
2021/11/16 10:20:52;;;;;;;117.80;41.72;;;;;;;5.14;100.00;102314.06;10590000;28;20525;-61
2021/11/16 10:25:55;;;;;;;94.00;38.92;;;;;;;5.35;100.00;102306.94;10589927;28;20047;-60
2021/11/16 10:30:59;;;;;;;100.45;37.05;;;;;;;5.22;100.00;102299.25;10589689;28;20062;-60
2021/11/16 10:36:05;;;;;;;87.25;35.95;;;;;;;5.37;100.00;102299.97;10589289;28;20533;-60
2021/11/16 10:41:10;;;;;;;92.32;36.28;;;;;;;5.37;100.00;102299.97;10589034;28;20498;-61
2021/11/16 10:46:13;;;;;;;97.25;35.97;;;;;;;5.42;100.00;102287.78;10589561;28;20055;-60
2021/11/16 10:51:16;;;;;;;89.90;34.60;;;;;;;5.47;100.00;102283.41;10589165;28;20047;-60
2021/11/16 10:56:28;;;;;;;94.13;35.28;;;;;;;5.29;100.00;102274.09;10589134;28;20046;-60
2021/11/16 11:01:30;;;;;;;96.35;36.60;;;;;;;5.25;100.00;102267.22;10588687;28;20047;-61
2021/11/16 11:06:35;;;;;;;102.28;35.22;;;;;;;5.39;100.00;102270.50;10588191;28;20516;-60
2021/11/16 11:11:45;;;;;;;96.18;38.67;;;;;;;5.28;100.00;102264.59;10588089;28;20051;-60
2021/11/16 11:16:58;;;;;;;94.20;35.07;;;;;;;5.40;100.00;102255.78;10569749;28;20051;-61
2021/11/16 11:22:40;;;;;;;74.90;31.17;;;;;;;5.49;100.00;102265.19;10587212;28;20051;-60
2021/11/16 11:27:41;;;;;;;75.47;30.58;;;;;;;5.46;100.00;102255.69;10585721;28;20495;-60
2021/11/16 11:32:45;;;;;;;55.72;25.23;;;;;;;5.73;100.00;102243.22;10587669;28;20044;-60
2021/11/16 11:37:49;;;;;;;71.45;29.52;;;;;;;5.76;100.00;102241.44;10569040;28;20047;-60
2021/11/16 11:42:56;;;;;;;60.17;27.23;;;;;;;5.48;100.00;102240.09;10586804;28;20055;-61
2021/11/16 11:48:07;;;;;;;61.70;26.75;;;;;;;5.47;100.00;102239.25;10568947;28;20043;-61
2021/11/16 11:53:12;;;;;;;62.47;26.70;;;;;;;5.60;100.00;102232.16;10586371;28;20517;-60
2021/11/16 11:58:16;;;;;;;67.10;30.45;;;;;;;5.50;100.00;102234.00;10586209;28;20051;-61
2021/11/16 12:03:21;;;;;;;65.97;26.15;;;;;;;5.68;100.00;102227.72;10585754;28;20054;-61
2021/11/16 12:08:24;;;;;;;60.65;27.30;;;;;;;5.58;100.00;102226.97;10586039;28;20054;-61
2021/11/16 12:13:30;;;;;;;65.60;27.35;;;;;;;5.35;100.00;102221.22;10585313;28;20469;-61
2021/11/16 12:18:44;;;;;;;63.90;25.48;;;;;;;5.80;100.00;102223.19;10568433;28;20043;-60
2021/11/16 12:23:55;;;;;;;72.85;27.23;;;;;;;5.39;100.00;102231.53;10585698;28;20050;-60
2021/11/16 12:29:14;;;;;;;70.40;29.70;;;;;;;5.36;100.00;102220.31;10585043;28;20044;-60
2021/11/16 12:34:40;;;;;;;71.05;28.90;;;;;;;5.31;100.00;102214.34;10584491;28;20491;-61
2021/11/16 12:40:00;;;;;;;70.85;28.85;;;;;;;5.40;100.00;102211.63;10584250;28;20052;-62
2021/11/16 12:45:08;;;;;;;65.35;28.95;;;;;;;5.56;100.00;102199.28;10565909;28;20056;-61
2021/11/16 12:50:13;;;;;;;59.42;25.00;;;;;;;6.06;100.00;102186.44;10584292;28;20044;-62
2021/11/16 12:55:19;;;;;;;60.80;25.52;;;;;;;5.79;100.00;102190.31;10583703;28;20044;-60
2021/11/16 13:00:37;;;;;;;62.88;25.25;;;;;;;5.35;100.00;102184.88;10583695;28;20090;-60
2021/11/16 13:05:43;;;;;;;66.35;25.63;;;;;;;5.20;100.00;102172.94;10584245;28;20043;-61
2021/11/16 13:10:54;;;;;;;69.15;26.55;;;;;;;5.26;100.00;102170.28;10583268;28;20423;-61
2021/11/16 13:16:02;;;;;;;58.63;25.67;;;;;;;5.25;100.00;102165.09;10583682;28;20059;-61
2021/11/16 13:21:08;;;;;;;62.10;26.38;;;;;;;5.30;100.00;102156.34;10583115;28;20071;-60
2021/11/16 13:26:19;;;;;;;55.63;23.08;;;;;;;5.64;100.00;102155.00;10582699;28;20075;-61
2021/11/16 13:31:21;;;;;;;60.88;24.90;;;;;;;5.27;100.00;102152.94;10582886;28;20045;-60
2021/11/16 13:36:25;;;;;;;58.50;22.23;;;;;;;5.60;100.00;102151.59;10582446;28;20058;-62
2021/11/16 13:41:47;;;;;;;55.30;23.17;;;;;;;5.64;100.00;102150.66;10582974;28;20056;-61
2021/11/16 13:46:56;;;;;;;57.95;23.88;;;;;;;5.38;100.00;102140.69;10582249;28;20039;-61
2021/11/16 13:52:33;;;;;;;52.28;22.00;;;;;;;5.47;100.00;102132.72;10581696;28;20052;-61
2021/11/16 13:57:38;;;;;;;48.22;21.10;;;;;;;5.70;100.00;102126.31;10577608;28;20043;-62
2021/11/16 14:02:58;;;;;;;45.72;21.33;;;;;;;5.48;100.00;102124.06;10582109;28;20046;-60
2021/11/16 14:08:07;;;;;;;48.22;19.90;;;;;;;5.37;100.00;102128.56;10582059;28;20054;-61
2021/11/16 14:13:14;;;;;;;52.15;23.88;;;;;;;5.25;100.00;102134.78;10581566;28;20487;-60
2021/11/16 14:18:20;;;;;;;47.50;22.25;;;;;;;5.51;100.00;102124.00;10581497;28;20052;-61
2021/11/16 14:23:26;;;;;;;51.83;20.08;;;;;;;5.47;100.00;102124.94;10581731;28;20054;-61
2021/11/16 14:28:31;;;;;;;58.13;23.88;;;;;;;5.21;100.00;102123.59;10581409;28;20050;-60
2021/11/16 14:33:43;;;;;;;55.33;23.42;;;;;;;5.20;100.00;102121.84;10563230;28;20055;-60
2021/11/16 14:38:46;;;;;;;;;;;;;;;5.37;100.00;102132.00;10581246;28;20062;-62
2021/11/16 14:43:57;;;;;;;49.65;20.50;;;;;;;5.38;100.00;102119.91;10563314;28;19924;-61
2021/11/16 14:49:00;;;;;;;53.85;21.60;;;;;;;5.48;100.00;102125.78;10580792;28;20047;-60
2021/11/16 14:54:08;;;;;;;53.05;22.20;;;;;;;5.69;100.00;102122.03;10580871;28;20052;-61
2021/11/16 14:59:24;;;;;;;53.17;22.75;;;;;;;5.25;100.00;102116.59;10562759;28;20043;-60
2021/11/16 15:04:34;;;;;;;56.22;23.45;;;;;;;5.27;100.00;102124.38;10588264;28;20043;-61
2021/11/16 15:09:53;;;;;;;58.95;25.95;;;;;;;5.02;100.00;102112.56;10588452;28;20050;-60
2021/11/16 15:15:04;;;;;;;54.25;23.23;;;;;;;4.91;100.00;102111.00;10588280;28;20054;-62
2021/11/16 15:21:26;;;;;;;57.28;22.50;;;;;;;5.25;100.00;102113.16;10573270;28;20051;-60
2021/11/16 15:26:10;;;;;;;46.90;20.98;;;;;;;5.22;100.00;102104.50;10584768;28;20048;-60
2021/11/16 15:31:14;;;;;;;48.42;20.27;;;;;;;5.24;100.00;102107.09;10586941;28;20495;-61
2021/11/16 15:36:24;;;;;;;51.88;22.27;;;;;;;5.12;100.00;102110.72;10587345;28;20089;-61
2021/11/16 15:41:34;;;;;;;45.05;21.40;;;;;;;5.30;100.00;102117.41;10568429;28;20056;-61
2021/11/16 15:57:37;;;;;;;67.22;27.45;;;;;;;5.11;100.00;102109.00;10586202;28;20416;-62
2021/11/16 16:02:40;;;;;;;65.25;25.83;;;;;;;5.01;100.00;102118.66;10586367;28;20048;-60
2021/11/16 16:07:58;;;;;;;53.70;22.98;;;;;;;5.12;100.00;102118.50;10586302;28;20054;-60
2021/11/16 16:13:01;;;;;;;49.95;20.42;;;;;;;4.79;100.00;102105.09;10585174;28;20132;-61
2021/11/16 16:18:27;;;;;;;47.25;20.23;;;;;;;4.92;100.00;102107.53;10585541;28;20406;-60
2021/11/16 16:23:30;;;;;;;53.42;21.70;;;;;;;5.05;100.00;102111.69;10567802;28;20050;-60
2021/11/16 16:28:40;;;;;;;54.22;20.25;;;;;;;5.07;100.00;102104.72;10585079;28;20054;-60
2021/11/16 16:33:43;;;;;;;52.45;19.50;;;;;;;4.93;100.00;102107.50;10584745;28;20396;-61
2021/11/16 16:38:45;;;;;;;50.05;20.00;;;;;;;5.13;100.00;102104.66;10566473;28;20048;-59
2021/11/16 16:43:57;;;;;;;53.42;21.15;;;;;;;4.96;100.00;102102.28;10584288;28;20055;-61
2021/11/16 16:49:00;;;;;;;48.97;20.27;;;;;;;5.09;100.00;102089.13;10584255;28;20478;-60
2021/11/16 16:54:06;;;;;;;39.03;17.40;;;;;;;5.22;100.00;102088.94;10583608;28;20054;-60
2021/11/16 16:59:14;;;;;;;58.45;21.55;;;;;;;5.03;100.00;102088.34;10583815;28;20130;-60
2021/11/16 17:04:23;;;;;;;54.88;22.25;;;;;;;4.94;100.00;102093.66;10583422;28;20537;-60
2021/11/16 17:09:26;;;;;;;50.85;20.23;;;;;;;5.10;100.00;102083.06;10583966;28;20047;-60
2021/11/16 17:14:29;;;;;;;53.15;21.13;;;;;;;4.98;100.00;102086.69;10583309;28;20047;-60
2021/11/16 17:19:32;;;;;;;55.58;21.38;;;;;;;4.85;100.00;102088.56;10583068;28;20052;-61
2021/11/16 17:24:35;;;;;;;65.30;24.23;;;;;;;4.95;100.00;102090.16;10564274;28;20043;-61
2021/11/16 17:29:37;;;;;;;61.03;22.90;;;;;;;4.74;100.00;102085.25;10582755;28;20122;-61
2021/11/16 17:34:40;;;;;;;71.35;24.73;;;;;;;4.57;100.00;102088.94;10582576;28;20058;-61
2021/11/16 17:39:43;;;;;;;57.08;21.33;;;;;;;4.81;100.00;102089.50;10564413;28;20062;-62
2021/11/16 17:44:45;;;;;;;60.38;22.95;;;;;;;5.01;100.00;102107.44;10582320;28;20069;-62
2021/11/16 17:49:48;;;;;;;52.47;21.52;;;;;;;4.71;100.00;102106.03;10582287;28;20170;-61
2021/11/16 17:54:50;;;;;;;73.50;24.33;;;;;;;4.72;100.00;102100.84;10582006;28;20048;-61
2021/11/16 17:59:52;;;;;;;60.05;24.35;;;;;;;5.09;100.00;102102.97;10581788;28;20497;-61
2021/11/16 18:05:02;;;;;;;64.05;23.45;;;;;;;4.85;100.00;102098.97;10581495;28;20062;-60
2021/11/16 18:10:09;;;;;;;56.67;22.85;;;;;;;4.94;100.00;102097.97;10582104;28;20059;-61
2021/11/16 18:15:11;;;;;;;60.03;23.55;;;;;;;4.70;100.00;102102.59;10581785;28;20411;-61
2021/11/16 18:20:16;;;;;;;47.05;18.70;;;;;;;4.62;100.00;102092.31;10581260;28;20043;-62
2021/11/16 18:25:19;;;;;;;54.05;20.98;;;;;;;4.76;100.00;102101.69;10581286;28;20495;-61
2021/11/16 18:30:27;;;;;;;47.55;18.98;;;;;;;4.72;100.00;102095.66;10581281;28;20044;-61
2021/11/16 18:35:30;;;;;;;46.42;18.98;;;;;;;4.82;100.00;102091.22;10582855;28;20530;-61
2021/11/16 18:40:38;;;;;;;53.97;20.38;;;;;;;4.83;100.00;102091.19;10589476;28;20066;-60
2021/11/16 18:45:47;;;;;;;53.08;21.30;;;;;;;4.50;100.00;102089.84;10589554;28;20051;-60
2021/11/16 18:50:50;;;;;;;48.75;19.83;;;;;;;4.56;100.00;102094.97;10589024;28;20044;-60
2021/11/16 18:55:54;;;;;;;56.17;21.27;;;;;;;4.87;100.00;102083.38;10589856;28;20059;-60
2021/11/16 19:00:56;;;;;;;56.95;22.80;;;;;;;4.50;100.00;102076.88;10588392;28;20044;-61
2021/11/16 19:05:59;;;;;;;51.33;21.17;;;;;;;4.62;100.00;102068.09;10588277;28;20483;-60
2021/11/16 19:11:02;;;;;;;55.15;21.23;;;;;;;4.89;100.00;102058.25;10588281;28;20069;-60
2021/11/16 19:16:11;;;;;;;63.83;23.83;;;;;;;4.40;100.00;102050.19;10570053;28;20047;-61
2021/11/16 19:21:14;;;;;;;62.55;21.65;;;;;;;4.59;100.00;102050.84;10587498;28;20478;-61
2021/11/16 19:26:16;;;;;;;61.85;21.40;;;;;;;4.49;100.00;102041.47;10587778;28;20044;-60
2021/11/16 19:31:20;;;;;;;56.38;22.35;;;;;;;4.36;100.00;102034.72;10587278;28;20376;-60
2021/11/16 19:36:28;;;;;;;62.90;22.02;;;;;;;4.47;100.00;102031.13;10569207;28;20487;-61
2021/11/16 19:41:31;;;;;;;55.50;18.95;;;;;;;4.54;100.00;102039.69;10586548;28;20514;-62
2021/11/16 19:46:33;;;;;;;58.72;21.42;;;;;;;4.70;100.00;102039.47;10586105;28;20044;-60
2021/11/16 19:51:36;;;;;;;59.38;22.00;;;;;;;4.84;100.00;102034.94;10586426;28;20060;-61
2021/11/16 19:56:38;;;;;;;63.70;23.08;;;;;;;4.53;100.00;102032.75;10586682;28;20040;-62
2021/11/16 20:01:41;;;;;;;55.05;22.85;;;;;;;4.60;100.00;102025.75;10586019;28;20044;-60
2021/11/16 20:06:44;;;;;;;46.35;18.67;;;;;;;4.80;100.00;102028.94;10586528;28;20050;-61
2021/11/16 20:11:49;;;;;;;60.70;22.08;;;;;;;4.88;100.00;102031.44;10585605;28;20058;-60
2021/11/16 20:16:52;;;;;;;45.42;19.40;;;;;;;5.05;100.00;102041.59;10585921;28;20075;-60
2021/11/16 20:22:06;;;;;;;56.67;21.27;;;;;;;4.71;100.00;102044.66;10585514;28;20043;-60
2021/11/16 20:27:12;;;;;;;49.03;20.40;;;;;;;4.94;100.00;102038.28;10584749;28;20509;-60
2021/11/16 20:32:19;;;;;;;57.22;22.08;;;;;;;5.09;100.00;102045.00;10585400;28;20056;-60
2021/11/16 20:37:23;;;;;;;53.63;21.92;;;;;;;5.11;100.00;102036.31;10584786;28;20052;-61
2021/11/16 21:03:17;;;;;;;60.10;24.10;;;;;;;4.50;100.00;102013.78;10583427;28;20408;-60
2021/11/16 21:08:20;;;;;;;79.20;30.20;;;;;;;4.65;100.00;102011.00;10583745;28;20066;-60
2021/11/16 21:13:22;;;;;;;59.63;22.67;;;;;;;4.79;100.00;102009.09;10583750;28;20043;-61
2021/11/16 21:18:25;;;;;;;76.15;26.33;;;;;;;4.88;100.00;102000.31;10565176;28;20051;-61
2021/11/16 21:23:27;;;;;;;76.25;25.98;;;;;;;4.55;100.00;101997.28;10582671;28;20517;-61
2021/11/16 21:28:30;;;;;;;61.72;24.98;;;;;;;4.50;100.00;101999.09;10583195;28;20040;-62
2021/11/16 21:33:32;;;;;;;69.47;24.67;;;;;;;4.79;100.00;101990.91;10582505;28;20082;-61
2021/11/16 21:38:34;;;;;;;77.32;28.20;;;;;;;4.62;100.00;101990.28;10581933;28;20483;-60
2021/11/16 21:43:37;;;;;;;100.15;31.48;;;;;;;4.61;100.00;101989.44;10582228;28;20052;-60
2021/11/16 21:48:39;;;;;;;89.65;29.23;;;;;;;4.63;100.00;101989.41;10582869;28;20055;-60
2021/11/16 21:53:42;;;;;;;90.28;31.35;;;;;;;4.54;100.00;101985.22;10581885;28;20047;-61
2021/11/16 21:58:45;;;;;;;94.95;32.17;;;;;;;4.45;100.00;101978.41;10582310;28;20051;-61
2021/11/16 22:03:47;;;;;;;76.13;28.65;;;;;;;4.69;100.00;101994.53;10581600;28;20527;-60
2021/11/16 22:08:51;;;;;;;97.07;32.28;;;;;;;4.79;100.00;101993.53;10581729;28;20048;-61
2021/11/16 22:13:53;;;;;;;76.07;26.98;;;;;;;4.79;100.00;101985.72;10589561;28;20143;-60
2021/11/16 22:18:57;;;;;;;60.33;25.33;;;;;;;4.97;100.00;101994.13;10590245;28;20043;-61
2021/11/16 22:24:03;;;;;;;76.50;28.00;;;;;;;4.98;100.00;101995.84;10572007;28;20130;-61
2021/11/16 22:29:21;;;;;;;94.95;34.53;;;;;;;4.72;100.00;101983.22;10589847;28;20047;-60
2021/11/16 22:34:34;;;;;;;73.38;28.63;;;;;;;4.90;100.00;101984.72;10573817;28;20480;-60
2021/11/16 22:39:37;;;;;;;92.43;30.40;;;;;;;4.77;100.00;101991.81;10589351;28;20058;-61
2021/11/16 22:44:39;;;;;;;97.20;33.03;;;;;;;4.87;100.00;101975.22;10588887;28;20047;-60
2021/11/16 22:49:41;;;;;;;91.75;31.63;;;;;;;4.68;100.00;101977.22;10589010;28;20483;-60
2021/11/16 22:54:44;;;;;;;85.80;29.65;;;;;;;4.72;100.00;101978.03;10588902;28;20048;-60
2021/11/16 23:00:25;;;;;;;87.53;31.48;;;;;;;4.76;100.00;101982.34;10588836;28;20084;-60
